Terminal Aerodrome Forecast
Issued by NWS

Home | Current Version | Previous Version | Text Only | Print | Product List | Glossary On
Versions: 1 2 3 4 5 6 7 8 9 10 11 12 13 14 15 16 17 18
478
FTUS43 KDVN 090536
TAFBRL
TAF
KBRL 090536Z 0906/1006 27015G22KT P6SM SCT020 OVC050
     FM091000 29017G26KT P6SM -SN BKN030
     FM091600 33014G24KT P6SM SCT035
     FM100000 27008KT P6SM BKN100=

USA.gov is the U.S. government's official web portal to all federal, state and local government web resources and services.